createdAt,value
2023-07-25T06:14:24.612Z,98256.16
2023-07-25T06:16:52.090Z,98255.19
2023-07-25T06:19:19.260Z,98255.84
2023-07-25T06:21:46.654Z,98260.66
2023-07-25T06:24:14.713Z,98258.59
2023-07-25T06:26:42.245Z,98259.06
2023-07-25T06:29:09.505Z,98250.84
2023-07-25T06:31:37.973Z,98241.34
2023-07-25T06:34:05.311Z,98261.44
2023-07-25T06:36:32.659Z,98267.50
2023-07-25T06:38:59.979Z,98258.25
2023-07-25T06:41:27.246Z,98261.56
2023-07-25T06:43:59.548Z,98264.53
2023-07-25T06:46:27.045Z,98272.59
2023-07-25T06:48:54.323Z,98277.16
2023-07-25T06:51:21.816Z,98294.94
2023-07-25T06:56:33.684Z,98295.00
2023-07-25T06:59:01.046Z,98298.63
2023-07-25T07:01:29.901Z,98294.78
2023-07-25T07:03:57.479Z,98291.88
2023-07-25T07:06:24.811Z,98287.44
2023-07-25T07:08:52.028Z,98283.13
2023-07-25T07:11:19.534Z,98284.44
2023-07-25T07:13:46.839Z,98284.38
2023-07-25T07:16:14.182Z,98269.63
2023-07-25T07:18:42.321Z,98274.59
2023-07-25T07:21:09.730Z,98277.50
2023-07-25T07:23:36.944Z,98270.41
2023-07-25T07:26:04.267Z,98274.44
2023-07-25T07:28:31.576Z,98276.19
2023-07-25T07:30:58.896Z,98280.22
2023-07-25T07:33:26.603Z,98274.59
2023-07-25T07:35:53.934Z,98268.47
2023-07-25T07:38:21.172Z,98263.91
2023-07-25T07:40:48.558Z,98259.09
2023-07-25T07:43:17.044Z,98265.97
2023-07-25T07:45:44.421Z,98264.78
2023-07-25T07:48:11.906Z,98257.22
2023-07-25T07:50:39.280Z,98263.91
2023-07-25T07:53:06.521Z,98265.22
2023-07-25T07:55:34.627Z,98249.81
2023-07-25T07:58:02.116Z,98248.78
2023-07-25T08:00:29.546Z,98246.63
2023-07-25T08:02:56.789Z,98248.00
2023-07-25T08:05:24.526Z,98242.88
2023-07-25T08:07:51.782Z,98240.03
2023-07-25T08:10:19.339Z,98240.53
2023-07-25T08:12:46.620Z,98240.06
2023-07-25T08:15:14.149Z,98234.03
2023-07-25T08:17:41.461Z,98219.31
2023-07-25T08:20:09.230Z,98230.78
2023-07-25T08:22:36.538Z,98232.72
2023-07-25T08:25:03.952Z,98225.97
2023-07-25T08:27:31.667Z,98225.16
2023-07-25T08:29:59.067Z,98217.13
2023-07-25T08:32:27.498Z,98219.31
2023-07-25T08:34:55.174Z,98214.69
2023-07-25T08:37:24.367Z,98205.38
2023-07-25T08:39:51.723Z,98199.38
2023-07-25T08:42:19.342Z,98192.97
2023-07-25T08:44:51.879Z,98189.13
2023-07-25T08:47:23.872Z,98189.28
2023-07-25T08:49:55.045Z,98182.97
2023-07-25T08:52:27.508Z,98185.84
2023-07-25T08:54:55.941Z,98178.78
2023-07-25T08:57:23.988Z,98184.63
2023-07-25T08:59:52.282Z,98142.25
2023-07-25T09:02:20.577Z,98174.53
2023-07-25T09:04:49.753Z,98180.50
2023-07-25T09:07:18.176Z,98147.03
2023-07-25T09:09:47.195Z,98161.41
2023-07-25T09:12:14.908Z,98173.53
2023-07-25T09:14:44.604Z,98170.47
2023-07-25T09:17:12.006Z,98167.06
2023-07-25T09:19:40.214Z,98155.59
2023-07-25T09:22:35.271Z,98177.97
2023-07-25T09:25:09.613Z,98184.06
2023-07-25T09:27:36.912Z,98189.69
2023-07-25T09:30:12.509Z,98190.31
2023-07-25T09:32:39.983Z,98194.31
2023-07-25T09:35:07.923Z,98185.22
2023-07-25T09:37:35.357Z,98196.94
2023-07-25T09:40:02.610Z,98202.91
2023-07-25T09:42:29.992Z,98191.19
2023-07-25T09:44:57.561Z,98190.91
2023-07-25T09:47:27.188Z,98185.66
2023-07-25T09:49:57.058Z,98182.81
2023-07-25T09:52:24.600Z,98181.34
2023-07-25T09:54:52.199Z,98178.50
2023-07-25T09:57:20.293Z,98184.94
2023-07-25T09:59:50.859Z,98177.22
2023-07-25T10:02:19.326Z,98173.03
2023-07-25T10:04:48.114Z,98166.09
2023-07-25T10:07:15.715Z,98178.00
2023-07-25T10:09:45.910Z,98169.44
2023-07-25T10:12:13.567Z,98164.41
2023-07-25T10:14:40.920Z,98157.81
2023-07-25T10:17:09.377Z,98152.81
2023-07-25T10:20:08.370Z,98138.84
2023-07-25T10:22:43.802Z,98147.56
2023-07-25T10:25:18.526Z,98146.47
2023-07-25T10:27:45.990Z,98145.66
2023-07-25T10:30:26.353Z,98137.94
2023-07-25T10:32:55.875Z,98153.84
2023-07-25T10:35:43.231Z,98158.19
2023-07-25T10:38:12.455Z,98152.84
2023-07-25T10:40:55.300Z,98150.91
2023-07-25T10:43:27.560Z,98146.91
2023-07-25T10:45:55.890Z,98148.03
2023-07-25T10:48:46.324Z,98154.34
2023-07-25T10:51:16.781Z,98157.06
2023-07-25T10:54:10.056Z,98147.84
2023-07-25T10:56:41.814Z,98146.53
2023-07-25T10:59:12.528Z,98152.13
2023-07-25T11:01:49.398Z,98151.53
2023-07-25T11:04:33.403Z,98161.41
2023-07-25T11:07:11.358Z,98157.81
2023-07-25T11:09:43.430Z,98162.06
2023-07-25T11:12:11.992Z,98156.63
2023-07-25T11:14:46.101Z,98158.50
2023-07-25T11:17:14.222Z,98152.56
2023-07-25T11:19:41.590Z,98145.66
2023-07-25T11:22:10.523Z,98142.38
2023-07-25T11:24:48.942Z,98148.09
2023-07-25T11:27:16.452Z,98151.69
2023-07-25T11:29:44.587Z,98144.03
2023-07-25T11:32:11.953Z,98154.75
2023-07-25T11:34:39.218Z,98152.13
2023-07-25T11:37:13.751Z,98146.47
2023-07-25T11:39:41.240Z,98138.78
2023-07-25T11:42:09.922Z,98137.44
2023-07-25T11:44:37.967Z,98136.69
2023-07-25T11:47:05.995Z,98135.88
2023-07-25T11:49:49.724Z,98124.94
2023-07-25T11:52:19.619Z,98122.75
2023-07-25T11:54:48.764Z,98115.84
2023-07-25T11:57:16.503Z,98103.09
2023-07-25T11:59:44.564Z,98094.81
2023-07-25T12:02:14.094Z,98089.84
2023-07-25T12:04:46.120Z,98094.63
2023-07-25T12:07:14.609Z,98093.66
2023-07-25T12:09:56.432Z,98079.28
2023-07-25T12:12:23.830Z,98076.78
2023-07-25T12:15:03.138Z,98069.53
2023-07-25T12:17:46.376Z,98056.66
2023-07-25T12:20:24.079Z,98052.38
2023-07-25T12:23:06.835Z,98033.16
2023-07-25T12:25:37.514Z,98041.94
2023-07-25T12:28:05.123Z,98023.06
2023-07-25T12:30:32.405Z,98024.09
2023-07-25T12:32:59.794Z,98022.84
2023-07-25T12:35:27.978Z,98022.97
2023-07-25T12:37:55.412Z,98015.31
2023-07-25T12:40:22.706Z,98018.41
2023-07-25T12:42:50.050Z,98020.22
2023-07-25T12:45:17.422Z,98024.56
2023-07-25T12:47:44.774Z,98020.31
2023-07-25T12:50:12.331Z,98024.84
2023-07-25T12:52:39.937Z,98021.53
2023-07-25T12:55:08.397Z,98025.47
2023-07-25T12:57:35.781Z,98029.50
2023-07-25T13:00:08.366Z,98032.28
2023-07-25T13:02:36.064Z,98034.47
2023-07-25T13:05:03.518Z,98026.47
2023-07-25T13:07:31.288Z,98033.66
2023-07-25T13:09:58.562Z,98019.50
2023-07-25T13:12:25.894Z,98022.88
2023-07-25T13:14:53.142Z,98021.22
2023-07-25T13:17:20.506Z,98034.66
2023-07-25T13:19:47.810Z,98032.06
2023-07-25T13:22:15.602Z,98020.00
2023-07-25T13:24:42.972Z,98028.91
2023-07-25T13:27:10.494Z,98023.75
2023-07-25T13:29:38.659Z,98024.88
2023-07-25T13:32:06.465Z,98018.88
2023-07-25T13:34:33.761Z,98016.41
2023-07-25T13:37:01.088Z,98015.94
2023-07-25T13:39:28.372Z,98006.94
2023-07-25T13:41:55.796Z,98007.00
2023-07-25T13:44:23.229Z,98020.22
2023-07-25T13:46:51.749Z,98018.59
2023-07-25T13:49:19.104Z,98007.13
2023-07-25T13:51:46.391Z,98003.94
2023-07-25T13:54:14.944Z,98000.41
2023-07-25T13:56:43.858Z,97987.47
2023-07-25T13:59:12.685Z,98001.34
2023-07-25T14:01:40.388Z,98004.91
2023-07-25T14:04:10.009Z,97999.06
2023-07-25T14:06:37.481Z,98005.28
2023-07-25T14:09:05.230Z,98007.72
2023-07-25T14:11:33.437Z,98006.91
2023-07-25T14:14:01.053Z,98007.03
2023-07-25T14:16:29.428Z,98002.09
2023-07-25T14:18:56.714Z,98007.06
2023-07-25T14:21:24.016Z,98014.75
2023-07-25T14:23:51.359Z,98006.63
2023-07-25T14:26:19.267Z,98002.34
2023-07-25T14:28:47.205Z,97996.28
2023-07-25T14:31:14.553Z,97999.66
2023-07-25T14:33:41.929Z,97994.06
2023-07-25T14:36:09.229Z,97988.81
2023-07-25T14:38:37.034Z,97987.69
2023-07-25T14:41:04.677Z,97975.03
2023-07-25T14:43:31.967Z,97971.28
2023-07-25T14:46:00.548Z,97975.31
2023-07-25T14:48:27.921Z,97980.59
2023-07-25T14:50:55.657Z,97988.97
2023-07-25T14:53:22.972Z,97979.22
2023-07-25T14:55:50.387Z,97976.84
2023-07-25T14:58:17.614Z,97979.00
2023-07-25T15:00:45.044Z,97974.03
2023-07-25T15:03:12.544Z,97974.03
2023-07-25T15:05:39.834Z,97980.41
2023-07-25T15:08:08.450Z,97979.88
2023-07-25T15:10:38.437Z,97968.75
2023-07-25T15:13:07.790Z,97968.53
2023-07-25T15:15:35.129Z,97952.19
2023-07-25T15:18:02.451Z,97955.25
2023-07-25T15:20:29.914Z,97960.41
2023-07-25T15:22:57.161Z,97972.97
2023-07-25T15:25:25.822Z,97972.75
2023-07-25T15:27:54.200Z,97961.31
2023-07-25T15:30:21.625Z,97940.78
2023-07-25T15:32:49.002Z,97938.97
2023-07-25T15:35:17.720Z,97960.84
2023-07-25T15:37:45.355Z,97951.38
2023-07-25T15:40:12.828Z,97955.13
2023-07-25T15:42:40.035Z,97977.03
2023-07-25T15:45:07.898Z,97987.66
2023-07-25T15:47:35.218Z,97986.31
2023-07-25T15:50:02.649Z,97984.38
2023-07-25T15:52:30.126Z,97983.22
2023-07-25T15:55:00.077Z,97976.31
2023-07-25T15:57:27.512Z,97982.66
2023-07-25T15:59:55.017Z,97980.91
2023-07-25T16:02:22.335Z,97972.47
2023-07-25T16:04:49.834Z,97969.91
2023-07-25T16:07:17.214Z,97953.22
2023-07-25T16:09:44.846Z,97957.91
2023-07-25T16:12:12.307Z,97956.91
2023-07-25T16:14:39.683Z,97956.31
2023-07-25T16:17:07.046Z,97964.03
2023-07-25T16:19:34.294Z,97975.09
2023-07-25T16:22:01.729Z,97967.63
2023-07-25T16:24:29.194Z,97983.34
2023-07-25T16:26:56.432Z,97977.25
2023-07-25T16:29:23.785Z,97975.50
2023-07-25T16:31:51.722Z,97981.53
2023-07-25T16:34:19.532Z,97985.28
2023-07-25T16:36:46.789Z,97999.69
2023-07-25T16:39:14.173Z,98005.16
2023-07-25T16:41:41.358Z,98003.22
2023-07-25T16:44:08.864Z,97991.78
2023-07-25T16:46:36.608Z,97994.38
2023-07-25T16:49:04.276Z,97985.69
2023-07-25T16:51:31.820Z,97978.13
2023-07-25T16:53:59.380Z,97981.88
2023-07-25T16:56:26.655Z,97983.88
2023-07-25T16:58:54.201Z,97989.06
2023-07-25T17:01:21.579Z,97987.66
2023-07-25T17:03:48.936Z,97991.88
2023-07-25T17:06:16.245Z,97997.69
2023-07-25T17:08:44.647Z,97994.16
2023-07-25T17:11:12.925Z,97996.09
2023-07-25T17:13:40.709Z,98000.09
2023-07-25T17:16:09.657Z,97987.53
2023-07-25T17:18:37.495Z,97989.47
2023-07-25T17:21:05.534Z,97987.38
2023-07-25T17:23:33.036Z,97984.63
2023-07-25T17:26:00.228Z,97986.44
2023-07-25T17:28:27.547Z,97984.81
2023-07-25T17:30:54.878Z,97993.03
2023-07-25T17:33:22.303Z,97991.91
2023-07-25T17:35:50.316Z,97992.03
2023-07-25T17:38:19.772Z,98003.97
2023-07-25T17:40:48.870Z,98017.81
2023-07-25T17:43:16.555Z,98025.03
2023-07-25T17:45:43.977Z,98026.47
2023-07-25T17:48:12.213Z,98023.84
2023-07-25T17:50:39.569Z,98029.34
2023-07-25T17:53:06.847Z,98038.59
2023-07-25T17:55:34.292Z,98074.13
2023-07-25T17:58:01.688Z,98081.34
2023-07-25T18:00:30.148Z,98087.81
2023-07-25T18:02:57.572Z,98084.38
2023-07-25T18:05:25.293Z,98099.53
2023-07-25T18:07:52.780Z,98103.59
2023-07-25T18:10:20.170Z,98118.63
2023-07-25T18:12:47.483Z,98095.19
2023-07-25T18:15:14.854Z,98099.59
2023-07-25T18:17:45.069Z,98083.13
2023-07-25T18:20:13.627Z,98086.59
2023-07-25T18:22:40.876Z,98093.97
2023-07-25T18:25:08.690Z,98091.31
2023-07-25T18:27:37.024Z,98102.94
2023-07-25T18:30:05.633Z,98090.19
2023-07-25T18:32:34.618Z,98064.19
2023-07-25T18:35:02.439Z,98055.59
2023-07-25T18:37:30.086Z,98064.88
2023-07-25T18:39:57.720Z,98077.59
2023-07-25T18:42:26.161Z,98087.28
2023-07-25T18:44:53.756Z,98092.91
2023-07-25T18:47:33.622Z,98095.66
2023-07-25T18:50:04.149Z,98074.97
2023-07-25T18:52:31.486Z,98069.75
2023-07-25T18:54:58.772Z,98077.91
2023-07-25T18:57:26.111Z,98085.56
2023-07-25T18:59:53.433Z,98071.13
2023-07-25T19:02:21.224Z,98070.34
